Weather at Nýjidalur Airport

Public forecast

Using degrees Celsius for public forecast. Weather courtesy of forecast.io.

Closest aviation weather report (METAR) to Nýjidalur Airport

Closest report is Akureyri Airport, 56.4 nm (104.5 km) N. Retrieved 2021/06/21 09:00 UTC (23 minutes ago):

BIAR 210900Z 18015KT 9999 BKN048 10/02 Q1011

Closest aviation forecast (TAF) to Nýjidalur Airport

Closest forecast is Akureyri Airport, 56.4 nm (104.5 km) N. Retrieved 2021/06/21 09:39 UTC (0 seconds ago):

TAF TAF BIAR 210736Z 2109/2209 19010KT 9999 SCT055 TX13/2114Z TN08/2201Z TEMPO 2116/2209 -RA BKN020 TEMPO 2116/2123 19015G28KT BECMG 2206/2208 25014KT